Terminal Aerodrome Forecast
Issued by NWS

Home | Current Version | Previous Version | Text Only | Print | Product List | Glossary On
Versions: 1 2 3 4 5 6 7 8 9 10 11 12
000
FTUS44 KTSA 291700
TAFMLC
TAF
KMLC 291736Z 2918/3018 VRB03KT P6SM FEW120
     FM300600 00000KT P6SM BKN110
     FM301200 11002KT P6SM -RA OVC250
      TEMPO 3012/3015 3SM -TSRA BKN050CB
     FM301600 18006KT P6SM -RA BKN080
      TEMPO 3016/3018 3SM -TSRA OVC050CB=

USA.gov is the U.S. government's official web portal to all federal, state and local government web resources and services.